Baton Rouge Metropolitan, Ryan Field
KBTR : now visible

Airfield :











YOU CAN JOIN US ON...

 
LOGIN :

Register | Disclaimer

   EN    FR    IT 

 









Legend :    VFR   Marginal VFR   IFR   Intensive IFR   Very Intensive IFR
Visi :
Ceiling :
>= 8 km
>= 3000ft
5 to 8 km
1000 to 3000 ft
1500m to 5 km
500 to 1000 ft
800 to 1500m
200 to 500 ft
< 800m
< 200 ft
Symbols :   Thunderstorms  Fog  Heavy snow  Heavy precipitations  Wind > 20 kt






- Airport Elevation : 70 ft
- IATA code : BTR


KBTR - Baton Rouge Metropolitan, Ryan Field

CURRENT METAR :
  • 240553Z AUTO 10008KT 10SM OVC013 15/12 A3006 RMK AO2 SLP177 T01500122 10150 20144 401670139 58007 $

EXPIRED METARs :
  • 240453Z AUTO 09009KT 10SM BKN025 OVC033 14/13 A3007 RMK AO2 SLP181 T01440128 $
  • 240438Z AUTO 10009KT 10SM FEW012 BKN024 OVC030 14/13 A3007 RMK AO2 T01440128 $
  • 240353Z AUTO 09006KT 10SM OVC033 14/13 A3008 RMK AO2 SLP184 T01440128 $

TAF KBTR
Valid from the 24 at 06:00 until the 25 at 06:00 UTC


240540Z 2406/2506 10006KT P6SM SCT010 BKN025 OVC035
TEMPO 2406/2408 BKN010
FM240800 10006KT 6SM BR OVC008
FM241100 11005KT 3SM BR OVC003
FM241800 15007KT P6SM OVC008
FM242100 16007KT P6SM OVC010
FM250300 14008KT P6SM OVC008
KZHU FIR / North America



MET'MAP, your aeronautical weather chart ! - Copyright ORBIFLY December 2007 - Disclaimer

ORBIFLY MET'MAP TEAM :

Programming & Development : Alexandra Zaïnal
Concept & original design : Baudouin d'Aumeries
Assistance for programming : Marc-Olivier Méhu
Technical & hardware support : Manuel Goepfert

Contact : metmap@orbifly.com




SOURCES & CREDITS :

   NOAA       Earth
Advisory